sensor_id;sensor_type;location;lat;lon;timestamp;pressure;altitude;pressure_sealevel;temperature;humidity
4012;BME280;2020;48.682;9.024;2023-01-26T00:00:25;96905.09;;;-1.23;100.00
4012;BME280;2020;48.682;9.024;2023-01-26T00:02:51;96899.97;;;-1.23;100.00
4012;BME280;2020;48.682;9.024;2023-01-26T00:05:16;96903.28;;;-1.21;100.00
4012;BME280;2020;48.682;9.024;2023-01-26T00:07:41;96898.31;;;-1.24;100.00
4012;BME280;2020;48.682;9.024;2023-01-26T00:10:10;96903.44;;;-1.24;100.00
4012;BME280;2020;48.682;9.024;2023-01-26T00:12:36;96904.03;;;-1.19;100.00
4012;BME280;2020;48.682;9.024;2023-01-26T00:15:01;96899.84;;;-1.20;100.00
4012;BME280;2020;48.682;9.024;2023-01-26T00:17:27;96890.59;;;-1.22;100.00
4012;BME280;2020;48.682;9.024;2023-01-26T00:19:53;96884.66;;;-1.23;100.00
4012;BME280;2020;48.682;9.024;2023-01-26T00:22:20;96879.53;;;-1.23;100.00
4012;BME280;2020;48.682;9.024;2023-01-26T00:24:45;96874.31;;;-1.39;100.00
4012;BME280;2020;48.682;9.024;2023-01-26T00:27:10;96862.38;;;-1.38;100.00
4012;BME280;2020;48.682;9.024;2023-01-26T00:29:35;96867.69;;;-1.43;100.00
4012;BME280;2020;48.682;9.024;2023-01-26T00:32:01;96856.53;;;-1.40;100.00
4012;BME280;2020;48.682;9.024;2023-01-26T00:34:26;96864.66;;;-1.32;100.00
4012;BME280;2020;48.682;9.024;2023-01-26T00:36:51;96851.75;;;-1.29;100.00
4012;BME280;2020;48.682;9.024;2023-01-26T00:39:16;96841.66;;;-1.32;100.00
4012;BME280;2020;48.682;9.024;2023-01-26T00:41:42;96837.31;;;-1.30;100.00
4012;BME280;2020;48.682;9.024;2023-01-26T00:44:26;96837.75;;;-1.39;100.00
4012;BME280;2020;48.682;9.024;2023-01-26T00:46:51;96837.59;;;-1.36;100.00
4012;BME280;2020;48.682;9.024;2023-01-26T00:49:16;96838.34;;;-1.34;100.00
4012;BME280;2020;48.682;9.024;2023-01-26T00:51:42;96834.16;;;-1.35;100.00
4012;BME280;2020;48.682;9.024;2023-01-26T00:54:07;96840.75;;;-1.31;100.00
4012;BME280;2020;48.682;9.024;2023-01-26T00:56:32;96832.50;;;-1.36;100.00
4012;BME280;2020;48.682;9.024;2023-01-26T00:58:57;96830.97;;;-1.40;100.00
4012;BME280;2020;48.682;9.024;2023-01-26T01:01:23;96824.84;;;-1.36;100.00
4012;BME280;2020;48.682;9.024;2023-01-26T01:03:48;96830.09;;;-1.39;100.00
4012;BME280;2020;48.682;9.024;2023-01-26T01:06:16;96822.28;;;-1.36;100.00
4012;BME280;2020;48.682;9.024;2023-01-26T01:08:41;96818.69;;;-1.32;100.00
4012;BME280;2020;48.682;9.024;2023-01-26T01:11:08;96812.63;;;-1.29;100.00
4012;BME280;2020;48.682;9.024;2023-01-26T01:13:34;96813.41;;;-1.29;100.00
4012;BME280;2020;48.682;9.024;2023-01-26T01:15:59;96821.16;;;-1.30;100.00
4012;BME280;2020;48.682;9.024;2023-01-26T01:18:28;96816.88;;;-1.30;100.00
4012;BME280;2020;48.682;9.024;2023-01-26T01:20:53;96818.25;;;-1.23;100.00
4012;BME280;2020;48.682;9.024;2023-01-26T01:23:19;96831.00;;;-1.23;100.00
4012;BME280;2020;48.682;9.024;2023-01-26T01:25:44;96823.19;;;-1.20;100.00
4012;BME280;2020;48.682;9.024;2023-01-26T01:28:10;96821.25;;;-1.14;100.00
4012;BME280;2020;48.682;9.024;2023-01-26T01:30:36;96823.06;;;-1.16;100.00
4012;BME280;2020;48.682;9.024;2023-01-26T01:33:02;96817.03;;;-1.15;100.00
4012;BME280;2020;48.682;9.024;2023-01-26T01:35:27;96821.69;;;-1.24;100.00
4012;BME280;2020;48.682;9.024;2023-01-26T01:37:53;96814.25;;;-1.28;100.00
4012;BME280;2020;48.682;9.024;2023-01-26T01:40:19;96814.19;;;-1.27;100.00
4012;BME280;2020;48.682;9.024;2023-01-26T01:42:47;96802.16;;;-1.25;100.00
4012;BME280;2020;48.682;9.024;2023-01-26T01:47:52;96808.31;;;-1.29;100.00
4012;BME280;2020;48.682;9.024;2023-01-26T01:50:21;96801.84;;;-1.36;100.00
4012;BME280;2020;48.682;9.024;2023-01-26T01:52:47;96804.69;;;-1.42;100.00
4012;BME280;2020;48.682;9.024;2023-01-26T01:55:14;96806.19;;;-1.38;100.00
4012;BME280;2020;48.682;9.024;2023-01-26T01:57:50;96796.88;;;-1.39;100.00
4012;BME280;2020;48.682;9.024;2023-01-26T02:00:19;96791.69;;;-1.38;100.00
4012;BME280;2020;48.682;9.024;2023-01-26T02:02:48;96801.44;;;-1.46;100.00
4012;BME280;2020;48.682;9.024;2023-01-26T02:05:39;96793.56;;;-1.41;100.00
4012;BME280;2020;48.682;9.024;2023-01-26T02:08:05;96794.19;;;-1.36;100.00
4012;BME280;2020;48.682;9.024;2023-01-26T02:10:34;96793.13;;;-1.32;100.00
4012;BME280;2020;48.682;9.024;2023-01-26T02:13:00;96791.34;;;-1.30;100.00
4012;BME280;2020;48.682;9.024;2023-01-26T02:15:26;96788.47;;;-1.41;100.00
4012;BME280;2020;48.682;9.024;2023-01-26T02:17:53;96786.81;;;-1.42;100.00
4012;BME280;2020;48.682;9.024;2023-01-26T02:20:31;96784.25;;;-1.42;100.00
4012;BME280;2020;48.682;9.024;2023-01-26T02:23:24;96778.41;;;-1.44;100.00
4012;BME280;2020;48.682;9.024;2023-01-26T02:28:17;96771.34;;;-1.39;100.00
4012;BME280;2020;48.682;9.024;2023-01-26T02:30:43;96779.91;;;-1.40;100.00
4012;BME280;2020;48.682;9.024;2023-01-26T02:33:21;96776.59;;;-1.42;100.00
4012;BME280;2020;48.682;9.024;2023-01-26T02:35:46;96767.91;;;-1.38;100.00
4012;BME280;2020;48.682;9.024;2023-01-26T02:38:11;96767.59;;;-1.32;100.00
4012;BME280;2020;48.682;9.024;2023-01-26T02:40:43;96771.06;;;-1.33;100.00
4012;BME280;2020;48.682;9.024;2023-01-26T02:43:12;96765.94;;;-1.33;100.00
4012;BME280;2020;48.682;9.024;2023-01-26T02:45:39;96760.84;;;-1.33;100.00
4012;BME280;2020;48.682;9.024;2023-01-26T02:48:05;96753.03;;;-1.30;100.00
4012;BME280;2020;48.682;9.024;2023-01-26T02:50:32;96762.28;;;-1.27;100.00
4012;BME280;2020;48.682;9.024;2023-01-26T02:52:58;96765.03;;;-1.32;100.00
4012;BME280;2020;48.682;9.024;2023-01-26T02:55:24;96758.88;;;-1.28;100.00
4012;BME280;2020;48.682;9.024;2023-01-26T02:57:52;96767.59;;;-1.32;100.00
4012;BME280;2020;48.682;9.024;2023-01-26T03:00:19;96755.59;;;-1.30;100.00
4012;BME280;2020;48.682;9.024;2023-01-26T03:02:46;96762.50;;;-1.32;100.00
4012;BME280;2020;48.682;9.024;2023-01-26T03:05:12;96759.03;;;-1.31;100.00
4012;BME280;2020;48.682;9.024;2023-01-26T03:07:38;96757.22;;;-1.29;100.00
4012;BME280;2020;48.682;9.024;2023-01-26T03:10:04;96749.50;;;-1.27;100.00
4012;BME280;2020;48.682;9.024;2023-01-26T03:12:30;96752.28;;;-1.32;100.00
4012;BME280;2020;48.682;9.024;2023-01-26T03:14:55;96753.63;;;-1.25;100.00
4012;BME280;2020;48.682;9.024;2023-01-26T03:17:38;96755.28;;;-1.24;100.00
4012;BME280;2020;48.682;9.024;2023-01-26T03:20:04;96750.03;;;-1.21;100.00
4012;BME280;2020;48.682;9.024;2023-01-26T03:22:49;96743.09;;;-1.19;100.00
4012;BME280;2020;48.682;9.024;2023-01-26T03:25:40;96745.75;;;-1.20;100.00
4012;BME280;2020;48.682;9.024;2023-01-26T03:28:24;96738.31;;;-1.25;100.00
4012;BME280;2020;48.682;9.024;2023-01-26T03:30:51;96736.81;;;-1.29;100.00
4012;BME280;2020;48.682;9.024;2023-01-26T03:33:18;96728.22;;;-1.28;100.00
4012;BME280;2020;48.682;9.024;2023-01-26T03:35:44;96730.34;;;-1.36;100.00
4012;BME280;2020;48.682;9.024;2023-01-26T03:38:10;96725.22;;;-1.36;100.00
4012;BME280;2020;48.682;9.024;2023-01-26T03:40:35;96722.00;;;-1.40;100.00
4012;BME280;2020;48.682;9.024;2023-01-26T03:43:19;96719.44;;;-1.40;100.00
4012;BME280;2020;48.682;9.024;2023-01-26T03:46:03;96711.72;;;-1.38;100.00
4012;BME280;2020;48.682;9.024;2023-01-26T03:48:48;96714.31;;;-1.40;100.00
4012;BME280;2020;48.682;9.024;2023-01-26T03:51:31;96711.31;;;-1.48;100.00
4012;BME280;2020;48.682;9.024;2023-01-26T03:54:15;96718.91;;;-1.47;100.00
4012;BME280;2020;48.682;9.024;2023-01-26T03:56:59;96713.66;;;-1.43;100.00
4012;BME280;2020;48.682;9.024;2023-01-26T03:59:25;96716.97;;;-1.41;100.00
4012;BME280;2020;48.682;9.024;2023-01-26T04:02:07;96714.41;;;-1.41;100.00
4012;BME280;2020;48.682;9.024;2023-01-26T04:04:51;96717.28;;;-1.48;100.00
4012;BME280;2020;48.682;9.024;2023-01-26T04:07:36;96718.91;;;-1.47;100.00
4012;BME280;2020;48.682;9.024;2023-01-26T04:10:20;96715.47;;;-1.45;100.00
4012;BME280;2020;48.682;9.024;2023-01-26T04:12:46;96724.69;;;-1.43;100.00
4012;BME280;2020;48.682;9.024;2023-01-26T04:15:29;96722.00;;;-1.40;100.00
4012;BME280;2020;48.682;9.024;2023-01-26T04:18:13;96722.88;;;-1.41;100.00
4012;BME280;2020;48.682;9.024;2023-01-26T04:20:57;96717.94;;;-1.44;100.00
4012;BME280;2020;48.682;9.024;2023-01-26T04:23:41;96720.56;;;-1.45;100.00
4012;BME280;2020;48.682;9.024;2023-01-26T04:26:06;96722.22;;;-1.44;100.00
4012;BME280;2020;48.682;9.024;2023-01-26T04:28:32;96723.88;;;-1.43;100.00
4012;BME280;2020;48.682;9.024;2023-01-26T04:30:57;96725.53;;;-1.42;100.00
4012;BME280;2020;48.682;9.024;2023-01-26T04:33:22;96723.88;;;-1.43;100.00
4012;BME280;2020;48.682;9.024;2023-01-26T04:35:47;96717.13;;;-1.44;100.00
4012;BME280;2020;48.682;9.024;2023-01-26T04:38:13;96719.59;;;-1.43;100.00
4012;BME280;2020;48.682;9.024;2023-01-26T04:40:38;96717.28;;;-1.48;100.00
4012;BME280;2020;48.682;9.024;2023-01-26T04:43:03;96708.72;;;-1.47;100.00
4012;BME280;2020;48.682;9.024;2023-01-26T04:45:28;96709.31;;;-1.41;100.00
4012;BME280;2020;48.682;9.024;2023-01-26T04:47:54;96699.53;;;-1.51;100.00
4012;BME280;2020;48.682;9.024;2023-01-26T04:50:19;96705.09;;;-1.60;100.00
4012;BME280;2020;48.682;9.024;2023-01-26T04:52:44;96697.44;;;-1.60;100.00
4012;BME280;2020;48.682;9.024;2023-01-26T04:55:09;96694.28;;;-1.65;100.00
4012;BME280;2020;48.682;9.024;2023-01-26T04:57:34;96700.16;;;-1.63;100.00
4012;BME280;2020;48.682;9.024;2023-01-26T05:00:00;96692.63;;;-1.66;100.00
4012;BME280;2020;48.682;9.024;2023-01-26T05:02:25;96694.28;;;-1.65;100.00
4012;BME280;2020;48.682;9.024;2023-01-26T05:04:50;96700.16;;;-1.63;100.00
4012;BME280;2020;48.682;9.024;2023-01-26T05:07:16;96692.69;;;-1.68;100.00
4012;BME280;2020;48.682;9.024;2023-01-26T05:09:41;96695.25;;;-1.68;100.00
4012;BME280;2020;48.682;9.024;2023-01-26T05:12:06;96694.28;;;-1.65;100.00
4012;BME280;2020;48.682;9.024;2023-01-26T05:14:50;96700.91;;;-1.61;100.00
4012;BME280;2020;48.682;9.024;2023-01-26T05:17:15;96690.09;;;-1.66;100.00
4012;BME280;2020;48.682;9.024;2023-01-26T05:19:41;96693.06;;;-1.75;100.00
4012;BME280;2020;48.682;9.024;2023-01-26T05:22:06;96692.94;;;-1.72;100.00
4012;BME280;2020;48.682;9.024;2023-01-26T05:24:31;96694.72;;;-1.74;100.00
4012;BME280;2020;48.682;9.024;2023-01-26T05:26:56;96694.88;;;-1.78;100.00
4012;BME280;2020;48.682;9.024;2023-01-26T05:29:41;96695.84;;;-1.80;100.00
4012;BME280;2020;48.682;9.024;2023-01-26T05:32:07;96689.63;;;-1.74;100.00
4012;BME280;2020;48.682;9.024;2023-01-26T05:34:32;96691.94;;;-1.70;100.00
4012;BME280;2020;48.682;9.024;2023-01-26T05:36:57;96695.94;;;-1.64;100.00
4012;BME280;2020;48.682;9.024;2023-01-26T05:39:23;96698.69;;;-1.69;100.00
4012;BME280;2020;48.682;9.024;2023-01-26T05:41:48;96702.00;;;-1.67;100.00
4012;BME280;2020;48.682;9.024;2023-01-26T05:44:13;96701.19;;;-1.67;100.00
4012;BME280;2020;48.682;9.024;2023-01-26T05:46:38;96702.84;;;-1.66;100.00
4012;BME280;2020;48.682;9.024;2023-01-26T05:49:04;96701.03;;;-1.64;100.00
4012;BME280;2020;48.682;9.024;2023-01-26T05:51:29;96709.59;;;-1.65;100.00
4012;BME280;2020;48.682;9.024;2023-01-26T05:53:54;96705.53;;;-1.69;100.00
4012;BME280;2020;48.682;9.024;2023-01-26T05:56:20;96702.25;;;-1.71;100.00
4012;BME280;2020;48.682;9.024;2023-01-26T05:58:45;96701.50;;;-1.73;100.00
4012;BME280;2020;48.682;9.024;2023-01-26T06:01:10;96699.69;;;-1.71;100.00
4012;BME280;2020;48.682;9.024;2023-01-26T06:03:35;96699.84;;;-1.74;100.00
4012;BME280;2020;48.682;9.024;2023-01-26T06:06:01;96699.84;;;-1.74;100.00
4012;BME280;2020;48.682;9.024;2023-01-26T06:08:26;96693.06;;;-1.75;100.00
4012;BME280;2020;48.682;9.024;2023-01-26T06:10:57;96701.50;;;-1.73;100.00
4012;BME280;2020;48.682;9.024;2023-01-26T06:13:22;96696.38;;;-1.73;100.00
4012;BME280;2020;48.682;9.024;2023-01-26T06:15:48;96701.50;;;-1.73;100.00
4012;BME280;2020;48.682;9.024;2023-01-26T06:18:13;96704.66;;;-1.68;100.00
4012;BME280;2020;48.682;9.024;2023-01-26T06:20:38;96710.03;;;-1.74;100.00
4012;BME280;2020;48.682;9.024;2023-01-26T06:23:03;96704.78;;;-1.71;100.00
4012;BME280;2020;48.682;9.024;2023-01-26T06:25:29;96706.59;;;-1.73;100.00
4012;BME280;2020;48.682;9.024;2023-01-26T06:27:58;96699.84;;;-1.74;100.00
4012;BME280;2020;48.682;9.024;2023-01-26T06:30:23;96710.03;;;-1.74;100.00
4012;BME280;2020;48.682;9.024;2023-01-26T06:32:48;96709.19;;;-1.75;100.00
4012;BME280;2020;48.682;9.024;2023-01-26T06:35:13;96718.59;;;-1.75;100.00
4012;BME280;2020;48.682;9.024;2023-01-26T06:37:39;96716.94;;;-1.77;100.00
4012;BME280;2020;48.682;9.024;2023-01-26T06:40:04;96705.97;;;-1.79;100.00
4012;BME280;2020;48.682;9.024;2023-01-26T06:42:30;96718.06;;;-1.82;100.00
4012;BME280;2020;48.682;9.024;2023-01-26T06:44:55;96706.88;;;-1.80;100.00
4012;BME280;2020;48.682;9.024;2023-01-26T06:47:22;96707.78;;;-1.81;100.00
4012;BME280;2020;48.682;9.024;2023-01-26T06:49:48;96710.34;;;-1.81;100.00
4012;BME280;2020;48.682;9.024;2023-01-26T06:52:29;96713.47;;;-1.93;100.00
4012;BME280;2020;48.682;9.024;2023-01-26T06:54:57;96709.25;;;-1.94;100.00
4012;BME280;2020;48.682;9.024;2023-01-26T06:57:23;96712.44;;;-1.89;100.00
4012;BME280;2020;48.682;9.024;2023-01-26T06:59:49;96712.44;;;-1.89;100.00
4012;BME280;2020;48.682;9.024;2023-01-26T07:02:20;96711.53;;;-1.88;100.00
4012;BME280;2020;48.682;9.024;2023-01-26T07:04:46;96712.72;;;-1.95;100.00
4012;BME280;2020;48.682;9.024;2023-01-26T07:07:11;96710.63;;;-1.87;100.00
4012;BME280;2020;48.682;9.024;2023-01-26T07:09:37;96710.84;;;-1.92;100.00
4012;BME280;2020;48.682;9.024;2023-01-26T07:12:02;96711.81;;;-1.94;100.00
4012;BME280;2020;48.682;9.024;2023-01-26T07:14:30;96716.28;;;-1.99;100.00
4012;BME280;2020;48.682;9.024;2023-01-26T07:16:55;96712.97;;;-2.01;100.00
4012;BME280;2020;48.682;9.024;2023-01-26T07:19:20;96721.38;;;-1.99;100.00
4012;BME280;2020;48.682;9.024;2023-01-26T07:21:46;96722.28;;;-2.00;100.00
4012;BME280;2020;48.682;9.024;2023-01-26T07:24:12;96724.97;;;-2.03;100.00
4012;BME280;2020;48.682;9.024;2023-01-26T07:26:37;96733.38;;;-2.01;100.00
4012;BME280;2020;48.682;9.024;2023-01-26T07:29:03;96717.25;;;-2.02;100.00
4012;BME280;2020;48.682;9.024;2023-01-26T07:31:28;96723.06;;;-1.98;100.00
4012;BME280;2020;48.682;9.024;2023-01-26T07:33:53;96722.28;;;-2.00;100.00
4012;BME280;2020;48.682;9.024;2023-01-26T07:36:19;96722.66;;;-2.08;100.00
4012;BME280;2020;48.682;9.024;2023-01-26T07:38:44;96730.06;;;-2.03;100.00
4012;BME280;2020;48.682;9.024;2023-01-26T07:41:11;96733.81;;;-2.11;100.00
4012;BME280;2020;48.682;9.024;2023-01-26T07:43:37;96732.44;;;-2.18;100.00
4012;BME280;2020;48.682;9.024;2023-01-26T07:46:03;96719.16;;;-2.25;100.00
4012;BME280;2020;48.682;9.024;2023-01-26T07:48:29;96725.97;;;-2.25;100.00
4012;BME280;2020;48.682;9.024;2023-01-26T07:50:57;96730.59;;;-2.14;100.00
4012;BME280;2020;48.682;9.024;2023-01-26T07:53:23;96722.66;;;-2.27;100.00
4012;BME280;2020;48.682;9.024;2023-01-26T07:55:51;96717.28;;;-2.21;100.00
4012;BME280;2020;48.682;9.024;2023-01-26T07:58:16;96728.38;;;-2.22;100.00
4012;BME280;2020;48.682;9.024;2023-01-26T08:00:42;96720.56;;;-2.19;100.00
4012;BME280;2020;48.682;9.024;2023-01-26T08:03:11;96720.72;;;-2.22;100.00
4012;BME280;2020;48.682;9.024;2023-01-26T08:05:36;96716.59;;;-2.25;100.00
4012;BME280;2020;48.682;9.024;2023-01-26T08:08:03;96720.56;;;-2.19;100.00
4012;BME280;2020;48.682;9.024;2023-01-26T08:10:28;96723.59;;;-2.11;100.00
4012;BME280;2020;48.682;9.024;2023-01-26T08:12:59;96726.75;;;-2.06;100.00
4012;BME280;2020;48.682;9.024;2023-01-26T08:15:26;96728.16;;;-1.98;100.00
4012;BME280;2020;48.682;9.024;2023-01-26T08:17:54;96724.72;;;-1.97;100.00
4012;BME280;2020;48.682;9.024;2023-01-26T08:20:20;96727.13;;;-1.94;100.00
4012;BME280;2020;48.682;9.024;2023-01-26T08:22:45;96722.91;;;-1.95;100.00
4012;BME280;2020;48.682;9.024;2023-01-26T08:25:11;96724.81;;;-2.00;100.00
4012;BME280;2020;48.682;9.024;2023-01-26T08:27:36;96721.38;;;-1.99;100.00
4012;BME280;2020;48.682;9.024;2023-01-26T08:30:02;96728.41;;;-2.04;100.00
4012;BME280;2020;48.682;9.024;2023-01-26T08:32:30;96725.09;;;-2.07;100.00
4012;BME280;2020;48.682;9.024;2023-01-26T08:34:55;96721.47;;;-2.20;100.00
4012;BME280;2020;48.682;9.024;2023-01-26T08:37:20;96717.00;;;-2.15;100.00
4012;BME280;2020;48.682;9.024;2023-01-26T08:39:46;96729.59;;;-2.12;100.00
4012;BME280;2020;48.682;9.024;2023-01-26T08:42:11;96721.81;;;-2.09;100.00
4012;BME280;2020;48.682;9.024;2023-01-26T08:44:36;96726.16;;;-2.11;100.00
4012;BME280;2020;48.682;9.024;2023-01-26T08:47:01;96716.84;;;-2.12;100.00
4012;BME280;2020;48.682;9.024;2023-01-26T08:49:27;96723.19;;;-2.01;100.00
4012;BME280;2020;48.682;9.024;2023-01-26T08:51:52;96715.41;;;-1.98;100.00
4012;BME280;2020;48.682;9.024;2023-01-26T08:54:17;96720.72;;;-2.03;100.00
4012;BME280;2020;48.682;9.024;2023-01-26T08:56:42;96710.66;;;-2.06;100.00
4012;BME280;2020;48.682;9.024;2023-01-26T08:59:08;96714.75;;;-2.03;100.00
4012;BME280;2020;48.682;9.024;2023-01-26T09:01:33;96715.94;;;-2.11;100.00
4012;BME280;2020;48.682;9.024;2023-01-26T09:03:58;96718.22;;;-2.04;100.00
4012;BME280;2020;48.682;9.024;2023-01-26T09:06:24;96713.97;;;-2.23;100.00
4012;BME280;2020;48.682;9.024;2023-01-26T09:08:51;96718.91;;;-2.20;100.00
4012;BME280;2020;48.682;9.024;2023-01-26T09:11:16;96715.63;;;-2.22;100.00
4012;BME280;2020;48.682;9.024;2023-01-26T09:13:42;96719.19;;;-2.26;100.00
4012;BME280;2020;48.682;9.024;2023-01-26T09:16:18;96712.44;;;-2.27;100.00
4012;BME280;2020;48.682;9.024;2023-01-26T09:18:44;96709.63;;;-2.21;100.00
4012;BME280;2020;48.682;9.024;2023-01-26T09:21:09;96717.81;;;-2.14;100.00
4012;BME280;2020;48.682;9.024;2023-01-26T09:23:35;96716.69;;;-2.09;100.00
4012;BME280;2020;48.682;9.024;2023-01-26T09:26:02;96721.81;;;-2.09;100.00
4012;BME280;2020;48.682;9.024;2023-01-26T09:28:27;96714.25;;;-2.29;99.58
4012;BME280;2020;48.682;9.024;2023-01-26T09:30:53;96710.66;;;-2.25;100.00
4012;BME280;2020;48.682;9.024;2023-01-26T09:33:18;96713.81;;;-2.20;100.00
4012;BME280;2020;48.682;9.024;2023-01-26T09:35:45;96717.88;;;-2.16;100.00
4012;BME280;2020;48.682;9.024;2023-01-26T09:38:11;96714.28;;;-2.12;100.00
4012;BME280;2020;48.682;9.024;2023-01-26T09:40:47;96719.69;;;-2.18;100.00
4012;BME280;2020;48.682;9.024;2023-01-26T09:43:37;96722.78;;;-2.11;100.00
4012;BME280;2020;48.682;9.024;2023-01-26T09:46:26;96728.84;;;-2.14;99.82
4012;BME280;2020;48.682;9.024;2023-01-26T09:49:14;96735.59;;;-2.13;100.00
4012;BME280;2020;48.682;9.024;2023-01-26T09:51:51;96729.13;;;-2.20;99.34
4012;BME280;2020;48.682;9.024;2023-01-26T09:54:37;96732.44;;;-2.18;99.12
4012;BME280;2020;48.682;9.024;2023-01-26T09:57:19;96737.66;;;-2.21;99.87
4012;BME280;2020;48.682;9.024;2023-01-26T09:59:56;96730.03;;;-2.21;98.84
4012;BME280;2020;48.682;9.024;2023-01-26T10:02:44;96734.63;;;-2.29;97.87
4012;BME280;2020;48.682;9.024;2023-01-26T10:05:21;96722.78;;;-2.30;98.24
4012;BME280;2020;48.682;9.024;2023-01-26T10:07:50;96728.78;;;-2.31;98.47
4012;BME280;2020;48.682;9.024;2023-01-26T10:10:20;96725.97;;;-2.25;99.31
4012;BME280;2020;48.682;9.024;2023-01-26T10:12:48;96724.16;;;-2.23;98.92
4012;BME280;2020;48.682;9.024;2023-01-26T10:15:30;96727.34;;;-2.18;98.75
4012;BME280;2020;48.682;9.024;2023-01-26T10:18:05;96725.25;;;-2.10;98.89
4012;BME280;2020;48.682;9.024;2023-01-26T10:20:34;96730.50;;;-2.13;98.88
4012;BME280;2020;48.682;9.024;2023-01-26T10:23:08;96724.78;;;-2.18;98.30
4012;BME280;2020;48.682;9.024;2023-01-26T10:25:39;96720.44;;;-2.16;98.30
4012;BME280;2020;48.682;9.024;2023-01-26T10:28:27;96722.09;;;-2.15;98.12
4012;BME280;2020;48.682;9.024;2023-01-26T10:30:53;96716.19;;;-2.15;97.64
4012;BME280;2020;48.682;9.024;2023-01-26T10:33:32;96712.44;;;-2.27;97.84
4012;BME280;2020;48.682;9.024;2023-01-26T10:35:59;96713.69;;;-2.17;98.03
4012;BME280;2020;48.682;9.024;2023-01-26T10:38:45;96717.81;;;-2.14;98.25
4012;BME280;2020;48.682;9.024;2023-01-26T10:44:00;96723.31;;;-2.04;99.59
4012;BME280;2020;48.682;9.024;2023-01-26T10:46:35;96723.06;;;-2.17;98.27
4012;BME280;2020;48.682;9.024;2023-01-26T10:49:22;96720.28;;;-2.13;98.70
4012;BME280;2020;48.682;9.024;2023-01-26T10:52:14;96719.69;;;-2.18;97.64
4012;BME280;2020;48.682;9.024;2023-01-26T10:54:41;96717.41;;;-2.24;98.19
4012;BME280;2020;48.682;9.024;2023-01-26T10:57:29;96719.34;;;-2.29;98.54
4012;BME280;2020;48.682;9.024;2023-01-26T11:00:03;96716.66;;;-2.26;98.39
4012;BME280;2020;48.682;9.024;2023-01-26T11:02:33;96722.78;;;-2.30;97.59
4012;BME280;2020;48.682;9.024;2023-01-26T11:05:22;96715.75;;;-2.25;97.86
4012;BME280;2020;48.682;9.024;2023-01-26T11:07:50;96717.41;;;-2.24;98.28
4012;BME280;2020;48.682;9.024;2023-01-26T11:10:27;96717.06;;;-2.36;96.89
4012;BME280;2020;48.682;9.024;2023-01-26T11:15:40;96707.28;;;-2.45;97.43
4012;BME280;2020;48.682;9.024;2023-01-26T11:21:10;96712.09;;;-2.39;96.81
4012;BME280;2020;48.682;9.024;2023-01-26T11:23:51;96699.09;;;-2.32;97.05
4012;BME280;2020;48.682;9.024;2023-01-26T11:29:42;96695.78;;;-2.35;98.66
4012;BME280;2020;48.682;9.024;2023-01-26T11:37:47;96687.94;;;-2.30;98.70
4012;BME280;2020;48.682;9.024;2023-01-26T11:40:44;96688.59;;;-2.26;100.00
4012;BME280;2020;48.682;9.024;2023-01-26T11:46:00;96679.53;;;-2.32;99.61
4012;BME280;2020;48.682;9.024;2023-01-26T11:53:54;96675.38;;;-2.35;100.00
4012;BME280;2020;48.682;9.024;2023-01-26T11:56:50;96671.78;;;-2.30;100.00
4012;BME280;2020;48.682;9.024;2023-01-26T11:59:26;96664.28;;;-2.33;100.00
4012;BME280;2020;48.682;9.024;2023-01-26T12:02:25;96665.25;;;-2.36;100.00
4012;BME280;2020;48.682;9.024;2023-01-26T12:04:52;96660.78;;;-2.31;100.00
4012;BME280;2020;48.682;9.024;2023-01-26T12:07:29;96658.56;;;-2.39;100.00
4012;BME280;2020;48.682;9.024;2023-01-26T12:09:57;96657.63;;;-2.36;100.00
4012;BME280;2020;48.682;9.024;2023-01-26T12:12:41;96665.59;;;-2.44;100.00
4012;BME280;2020;48.682;9.024;2023-01-26T12:15:45;96656.78;;;-2.37;100.00
4012;BME280;2020;48.682;9.024;2023-01-26T12:18:21;96645.69;;;-2.36;100.00
4012;BME280;2020;48.682;9.024;2023-01-26T12:20:52;96645.28;;;-2.45;100.00
4012;BME280;2020;48.682;9.024;2023-01-26T12:26:09;96642.75;;;-2.45;100.00
4012;BME280;2020;48.682;9.024;2023-01-26T12:28:45;96641.00;;;-2.45;100.00
4012;BME280;2020;48.682;9.024;2023-01-26T12:33:42;96646.84;;;-2.43;100.00
4012;BME280;2020;48.682;9.024;2023-01-26T12:36:25;96638.31;;;-2.42;100.00
4012;BME280;2020;48.682;9.024;2023-01-26T12:39:10;96630.81;;;-2.45;100.00
4012;BME280;2020;48.682;9.024;2023-01-26T12:44:17;96624.97;;;-2.47;100.00
4012;BME280;2020;48.682;9.024;2023-01-26T12:46:50;96624.66;;;-2.41;100.00
4012;BME280;2020;48.682;9.024;2023-01-26T12:49:39;96611.72;;;-2.36;100.00
4012;BME280;2020;48.682;9.024;2023-01-26T12:55:01;96614.75;;;-2.47;100.00
4012;BME280;2020;48.682;9.024;2023-01-26T12:57:34;96608.72;;;-2.44;100.00
4012;BME280;2020;48.682;9.024;2023-01-26T13:00:05;96614.56;;;-2.42;100.00
4012;BME280;2020;48.682;9.024;2023-01-26T13:02:34;96615.47;;;-2.43;100.00
4012;BME280;2020;48.682;9.024;2023-01-26T13:05:01;96615.19;;;-2.56;100.00
4012;BME280;2020;48.682;9.024;2023-01-26T13:07:33;96623.59;;;-2.54;100.00
4012;BME280;2020;48.682;9.024;2023-01-26T13:10:42;96617.31;;;-2.47;100.00
4012;BME280;2020;48.682;9.024;2023-01-26T13:15:42;96619.84;;;-2.47;100.00
4012;BME280;2020;48.682;9.024;2023-01-26T13:18:11;96616.56;;;-2.49;100.00
4012;BME280;2020;48.682;9.024;2023-01-26T13:20:47;96616.28;;;-2.43;100.00
4012;BME280;2020;48.682;9.024;2023-01-26T13:23:41;96612.81;;;-2.42;100.00
4012;BME280;2020;48.682;9.024;2023-01-26T13:26:18;96615.84;;;-2.33;100.00
4012;BME280;2020;48.682;9.024;2023-01-26T13:28:45;96607.28;;;-2.32;100.00
4012;BME280;2020;48.682;9.024;2023-01-26T13:31:11;96608.13;;;-2.32;100.00
4012;BME280;2020;48.682;9.024;2023-01-26T13:33:36;96605.50;;;-2.30;100.00
4012;BME280;2020;48.682;9.024;2023-01-26T13:36:09;96599.16;;;-2.22;100.00
4012;BME280;2020;48.682;9.024;2023-01-26T13:38:40;96607.38;;;-2.34;100.00
4012;BME280;2020;48.682;9.024;2023-01-26T13:41:12;96608.00;;;-2.29;100.00
4012;BME280;2020;48.682;9.024;2023-01-26T13:46:26;96610.72;;;-2.33;100.00
4012;BME280;2020;48.682;9.024;2023-01-26T13:48:54;96608.63;;;-2.43;100.00
4012;BME280;2020;48.682;9.024;2023-01-26T13:51:25;96605.16;;;-2.42;100.00
4012;BME280;2020;48.682;9.024;2023-01-26T13:54:06;96607.72;;;-2.42;100.00
4012;BME280;2020;48.682;9.024;2023-01-26T13:56:40;96613.84;;;-2.46;100.00
4012;BME280;2020;48.682;9.024;2023-01-26T13:59:09;96615.88;;;-2.53;100.00
4012;BME280;2020;48.682;9.024;2023-01-26T14:01:45;96614.09;;;-2.51;100.00
4012;BME280;2020;48.682;9.024;2023-01-26T14:04:20;96609.53;;;-2.44;100.00
4012;BME280;2020;48.682;9.024;2023-01-26T14:06:50;96604.28;;;-2.41;100.00
4012;BME280;2020;48.682;9.024;2023-01-26T14:09:16;96605.03;;;-2.39;100.00
4012;BME280;2020;48.682;9.024;2023-01-26T14:11:42;96600.00;;;-2.40;100.00
4012;BME280;2020;48.682;9.024;2023-01-26T14:14:26;96608.34;;;-2.37;100.00